-> Other stations

1455

Speed(max): 1.6(2.7)knots
Direction:132° ( SE)
Temperature: 15.7°C
Arrived: 2026-05-11 00:38:13 CEST

Past data:
hh:mmknots
Dir (°)
°C
00:36 2.2 2.7 SE(132) 15.7
00:34 2.7 4.3 SE(128) 15.7
00:32 2.2 3.8 ESE(105) 15.7
00:30 1.6 2.7 E(100) 15.7
00:28 2.2 3.8 E(100) 15.7
00:26 2.2 3.8 E(99) 15.7
00:24 2.2 3.8 E(98) 15.7
00:22 3.2 4.3 ESE(102) 15.7
00:20 3.8 4.9 ESE(105) 15.7
00:18 3.8 5.4 ESE(109) 15.7
00:16 4.3 5.4 ESE(106) 15.7
00:14 3.8 5.4 ESE(107) 15.7
00:12 3.2 4.3 ESE(114) 15.7
00:10 3.8 4.9 ESE(108) 15.7
15 min. averages:
hh:mmknots
Dir (°)
°C
00:30 3.2 5.4 ESE(103) 15.7
00:15 3.2 5.4 ESE(113) 15.7
00:00 3.2 4.9 SE(127) 15.8
23:45 0 0 SE(128) 16.2
23:30 1.1 4.3 SE(129) 16.1
23:15 1.6 3.8 SE(138) 16.2
23:00 1.6 4.3 SE(141) 16.2
22:45 2.2 4.3 SE(140) 16.2
22:30 1.6 3.8 SSE(151) 16.1
22:15 1.6 3.8 SSE(152) 16.2
22:00 1.6 2.7 SSE(152) 16.2
21:45 1.6 3.8 SSE(150) 16.2
21:30 1.6 3.8 SSE(150) 16.1
21:15 1.1 2.7 SE(135) 16.1
21:00 1.6 4.9 SE(144) 16.1
Stations at HR:
1455
-> Other regions

Desktop view
Data provided by Holfuy.
© Holfuy Weather 2026